createdAt,value
2018-12-04T00:00:29.188Z,11.60
2018-12-04T00:02:57.656Z,11.60
2018-12-04T00:05:26.008Z,11.60
2018-12-04T00:07:54.582Z,11.50
2018-12-04T00:10:22.942Z,11.50
2018-12-04T00:12:57.920Z,11.50
2018-12-04T00:15:26.299Z,11.50
2018-12-04T00:17:54.705Z,11.50
2018-12-04T00:20:23.105Z,11.40
2018-12-04T00:22:51.523Z,11.50
2018-12-04T00:25:19.908Z,11.50
2018-12-04T00:27:48.291Z,11.50
2018-12-04T00:30:16.762Z,11.50
2018-12-04T00:32:45.488Z,11.50
2018-12-04T00:35:14.175Z,11.50
2018-12-04T00:37:42.576Z,11.40
2018-12-04T00:40:11.141Z,11.40
2018-12-04T00:42:39.534Z,11.40
2018-12-04T00:45:09.399Z,11.30
2018-12-04T00:47:37.787Z,11.30
2018-12-04T00:50:06.948Z,11.30
2018-12-04T00:52:35.340Z,11.40
2018-12-04T00:55:20.218Z,11.30
2018-12-04T00:57:48.597Z,11.30
2018-12-04T01:00:16.994Z,11.30
2018-12-04T01:02:45.355Z,11.30
2018-12-04T01:05:13.731Z,11.20
2018-12-04T01:07:42.255Z,11.20
2018-12-04T01:10:10.660Z,11.30
2018-12-04T01:12:39.061Z,11.30
2018-12-04T01:15:08.084Z,11.30
2018-12-04T01:17:36.504Z,11.30
2018-12-04T01:20:05.964Z,11.30
2018-12-04T01:22:34.344Z,11.30
2018-12-04T01:25:03.013Z,11.40
2018-12-04T01:27:31.410Z,11.40
2018-12-04T01:29:59.808Z,11.40
2018-12-04T01:32:28.210Z,11.30
2018-12-04T01:34:56.577Z,11.30
2018-12-04T01:37:25.132Z,11.30
2018-12-04T01:39:53.842Z,11.30
2018-12-04T01:42:22.248Z,11.40
2018-12-04T01:44:50.618Z,11.40
2018-12-04T01:47:19.009Z,11.40
2018-12-04T01:49:47.400Z,11.40
2018-12-04T01:52:15.777Z,11.40
2018-12-04T01:54:44.165Z,11.30
2018-12-04T01:57:12.573Z,11.30
2018-12-04T01:59:40.957Z,11.30
2018-12-04T02:02:09.332Z,11.30
2018-12-04T02:04:37.724Z,11.30
2018-12-04T02:07:06.221Z,11.20
2018-12-04T02:09:34.649Z,11.20
2018-12-04T02:12:03.028Z,11.30
2018-12-04T02:14:31.424Z,11.20
2018-12-04T02:17:02.788Z,11.20
2018-12-04T02:19:31.184Z,11.20
2018-12-04T02:21:59.566Z,11.20
2018-12-04T02:24:27.949Z,11.20
2018-12-04T02:26:56.337Z,11.20
2018-12-04T02:29:24.733Z,11.10
2018-12-04T02:31:53.107Z,11.10
2018-12-04T02:34:21.497Z,11.20
2018-12-04T02:36:49.878Z,11.20
2018-12-04T02:39:18.434Z,11.10
2018-12-04T02:41:46.841Z,11.20
2018-12-04T02:44:15.213Z,11.10
2018-12-04T02:46:43.678Z,11.10
2018-12-04T02:49:12.047Z,11.10
2018-12-04T02:51:40.515Z,11.20
2018-12-04T02:54:09.310Z,11.10
2018-12-04T02:56:37.892Z,11.10
2018-12-04T02:59:06.368Z,11.10
2018-12-04T03:01:35.026Z,11.10
2018-12-04T03:04:03.526Z,11.10
2018-12-04T03:06:31.928Z,11.10
2018-12-04T03:09:00.316Z,11.10
2018-12-04T03:11:28.780Z,11.10
2018-12-04T03:13:57.182Z,11.10
2018-12-04T03:16:25.677Z,11.10
2018-12-04T03:18:54.071Z,11.10
2018-12-04T03:21:22.445Z,11.10
2018-12-04T03:23:50.830Z,11.20
2018-12-04T03:26:19.502Z,11.00
2018-12-04T03:28:47.890Z,11.00
2018-12-04T03:31:16.380Z,11.10
2018-12-04T03:33:44.770Z,11.00
2018-12-04T03:36:13.153Z,11.00
2018-12-04T03:38:41.540Z,11.00
2018-12-04T03:41:10.202Z,11.10
2018-12-04T03:43:38.802Z,11.00
2018-12-04T03:46:07.382Z,11.10
2018-12-04T03:48:35.775Z,11.00
2018-12-04T03:51:04.219Z,11.00
2018-12-04T03:53:32.647Z,11.00
2018-12-04T03:56:01.048Z,11.00
2018-12-04T03:58:29.438Z,11.00
2018-12-04T04:00:57.836Z,11.00
2018-12-04T04:03:26.302Z,11.00
2018-12-04T04:05:54.756Z,11.10
2018-12-04T04:08:23.131Z,11.00
2018-12-04T04:10:51.512Z,11.00
2018-12-04T04:13:19.876Z,11.00
2018-12-04T04:15:48.263Z,11.10
2018-12-04T04:18:16.748Z,11.10
2018-12-04T04:20:45.145Z,11.00
2018-12-04T04:23:13.641Z,10.90
2018-12-04T04:25:42.017Z,10.80
2018-12-04T04:28:10.484Z,10.90
2018-12-04T04:30:38.905Z,10.90
2018-12-04T04:33:07.285Z,10.80
2018-12-04T04:35:35.894Z,10.80
2018-12-04T04:38:04.434Z,10.90
2018-12-04T04:40:32.822Z,10.90
2018-12-04T04:43:01.216Z,10.80
2018-12-04T04:45:29.698Z,10.80
2018-12-04T04:47:58.086Z,10.80
2018-12-04T04:50:26.655Z,10.70
2018-12-04T04:52:55.058Z,10.70
2018-12-04T04:55:23.461Z,10.80
2018-12-04T04:57:52.001Z,10.80
2018-12-04T05:00:20.372Z,10.90
2018-12-04T05:02:48.879Z,10.90
2018-12-04T05:05:17.269Z,10.80
2018-12-04T05:07:45.683Z,10.80
2018-12-04T05:10:14.158Z,10.80
2018-12-04T05:12:42.543Z,10.80
2018-12-04T05:15:10.901Z,10.80
2018-12-04T05:17:39.423Z,10.70
2018-12-04T05:20:08.664Z,10.80
2018-12-04T05:22:37.664Z,10.80
2018-12-04T05:25:07.562Z,10.80
2018-12-04T05:27:36.009Z,10.80
2018-12-04T05:30:05.642Z,10.70
2018-12-04T05:32:34.003Z,10.70
2018-12-04T05:35:02.464Z,10.70
2018-12-04T05:37:30.826Z,10.70
2018-12-04T05:39:59.224Z,10.80
2018-12-04T05:42:27.649Z,10.70
2018-12-04T05:44:56.389Z,10.60
2018-12-04T05:47:24.983Z,10.60
2018-12-04T05:49:53.465Z,10.50
2018-12-04T05:52:22.155Z,10.50
2018-12-04T05:54:50.542Z,10.30
2018-12-04T05:57:19.854Z,10.30
2018-12-04T05:59:48.279Z,10.30
2018-12-04T06:02:16.646Z,10.30
2018-12-04T06:04:45.124Z,10.30
2018-12-04T06:07:13.572Z,10.30
2018-12-04T06:09:42.017Z,10.30
2018-12-04T06:12:10.401Z,10.30
2018-12-04T06:14:38.781Z,10.30
2018-12-04T06:17:07.310Z,10.30
2018-12-04T06:19:35.690Z,10.20
2018-12-04T06:22:04.484Z,10.30
2018-12-04T06:24:32.842Z,10.20
2018-12-04T06:27:01.248Z,10.30
2018-12-04T06:29:29.641Z,10.30
2018-12-04T06:31:58.061Z,10.30
2018-12-04T06:34:26.453Z,10.40
2018-12-04T06:36:54.829Z,10.30
2018-12-04T06:39:23.208Z,10.40
2018-12-04T06:41:51.596Z,10.30
2018-12-04T06:44:19.966Z,10.30
2018-12-04T06:46:48.384Z,10.30
2018-12-04T06:49:16.761Z,10.30
2018-12-04T06:51:45.181Z,10.20
2018-12-04T06:54:13.561Z,10.30
2018-12-04T06:56:41.976Z,10.20
2018-12-04T06:59:10.376Z,10.20
2018-12-04T07:01:38.955Z,10.20
2018-12-04T07:04:07.340Z,10.20
2018-12-04T07:06:35.719Z,10.20
2018-12-04T07:09:06.610Z,10.20
2018-12-04T07:11:35.143Z,10.20
2018-12-04T07:14:03.888Z,10.20
2018-12-04T07:16:32.357Z,10.20
2018-12-04T07:19:00.837Z,10.10
2018-12-04T07:21:29.208Z,10.00
2018-12-04T07:23:57.648Z,10.10
2018-12-04T07:26:26.015Z,10.20
2018-12-04T07:28:54.405Z,10.30
2018-12-04T07:31:22.780Z,10.20
2018-12-04T07:33:51.188Z,10.30
2018-12-04T07:36:19.656Z,10.30
2018-12-04T07:38:48.217Z,10.40
2018-12-04T07:41:16.610Z,10.40
2018-12-04T07:43:45.258Z,10.40
2018-12-04T07:46:13.638Z,10.50
2018-12-04T07:48:42.232Z,10.40
2018-12-04T07:51:11.067Z,10.40
2018-12-04T07:53:39.764Z,10.40
2018-12-04T07:56:08.144Z,10.30
2018-12-04T07:58:36.680Z,10.30
2018-12-04T08:01:05.369Z,10.40
2018-12-04T08:03:33.875Z,10.40
2018-12-04T08:06:06.657Z,10.30
2018-12-04T08:08:35.297Z,10.30
2018-12-04T08:11:03.722Z,10.20
2018-12-04T08:13:32.104Z,10.20
2018-12-04T08:16:00.521Z,10.20
2018-12-04T08:18:29.043Z,10.20
2018-12-04T08:20:57.601Z,10.20
2018-12-04T08:23:26.120Z,10.30
2018-12-04T08:25:55.119Z,10.30
2018-12-04T08:28:23.487Z,10.30
2018-12-04T08:30:51.975Z,10.40
2018-12-04T08:33:20.364Z,10.40
2018-12-04T08:35:48.873Z,10.50
2018-12-04T08:38:17.278Z,10.60
2018-12-04T08:40:45.656Z,10.80
2018-12-04T08:43:14.040Z,10.80
2018-12-04T08:45:42.408Z,10.80
2018-12-04T08:48:10.897Z,10.80
2018-12-04T08:50:39.265Z,10.80
2018-12-04T08:53:07.661Z,10.90
2018-12-04T08:55:36.128Z,11.00
2018-12-04T08:58:04.505Z,10.90
2018-12-04T09:00:32.926Z,10.90
2018-12-04T09:03:01.424Z,10.90
2018-12-04T09:05:30.881Z,11.00
2018-12-04T09:07:59.257Z,10.80
2018-12-04T09:10:27.852Z,10.80
2018-12-04T09:12:56.229Z,10.90
2018-12-04T09:15:24.736Z,10.90
2018-12-04T09:17:53.131Z,11.00
2018-12-04T09:20:21.708Z,11.10
2018-12-04T09:22:50.306Z,11.10
2018-12-04T09:25:18.787Z,11.10
2018-12-04T09:27:47.252Z,11.10
2018-12-04T09:30:15.749Z,11.10
2018-12-04T09:32:44.196Z,10.90
2018-12-04T09:35:12.627Z,10.90
2018-12-04T09:37:40.999Z,10.90
2018-12-04T09:40:09.546Z,11.00
2018-12-04T09:42:38.075Z,10.90
2018-12-04T09:45:08.167Z,10.80
2018-12-04T09:47:36.677Z,10.80
2018-12-04T09:50:06.911Z,10.70
2018-12-04T09:52:35.452Z,10.70
2018-12-04T09:55:04.347Z,10.80
2018-12-04T09:57:32.736Z,10.80
2018-12-04T10:00:01.108Z,10.70
2018-12-04T10:02:29.496Z,10.80
2018-12-04T10:04:57.865Z,10.70
2018-12-04T10:07:26.247Z,10.80
2018-12-04T10:10:00.457Z,10.90
2018-12-04T10:12:25.173Z,10.90
2018-12-04T10:14:53.573Z,11.10
2018-12-04T10:17:21.948Z,11.30
2018-12-04T10:19:50.500Z,11.40
2018-12-04T10:22:19.001Z,11.30
2018-12-04T10:24:47.371Z,11.20
2018-12-04T10:27:15.768Z,11.10
2018-12-04T10:29:44.163Z,11.00
2018-12-04T10:32:12.759Z,11.00
2018-12-04T10:34:41.148Z,11.10
2018-12-04T10:37:09.560Z,11.00
2018-12-04T10:39:38.024Z,11.00
2018-12-04T10:42:06.413Z,11.00
2018-12-04T10:44:34.801Z,10.80
2018-12-04T10:47:03.197Z,10.80
2018-12-04T10:49:32.348Z,10.70
2018-12-04T10:52:00.794Z,10.50
2018-12-04T10:54:29.189Z,10.60
2018-12-04T10:56:57.572Z,10.60
2018-12-04T10:59:25.983Z,10.60
2018-12-04T11:01:59.617Z,10.70
2018-12-04T11:04:28.225Z,10.80
2018-12-04T11:06:56.691Z,10.80
2018-12-04T11:09:25.079Z,10.80
2018-12-04T11:11:53.448Z,10.80
2018-12-04T11:14:21.850Z,10.80
2018-12-04T11:16:50.234Z,10.70
2018-12-04T11:19:18.883Z,10.80
2018-12-04T11:21:47.265Z,10.70
2018-12-04T11:24:15.631Z,10.60
2018-12-04T11:26:44.048Z,10.60
2018-12-04T11:29:12.846Z,10.50
2018-12-04T11:31:41.239Z,10.50
2018-12-04T11:34:10.279Z,10.40
2018-12-04T11:36:38.709Z,10.60
2018-12-04T11:39:07.974Z,10.60
2018-12-04T11:41:36.545Z,10.60
2018-12-04T11:44:05.137Z,10.50
2018-12-04T11:46:33.544Z,10.50
2018-12-04T11:49:01.924Z,10.40
2018-12-04T11:51:30.333Z,10.50
2018-12-04T11:53:58.820Z,10.40
2018-12-04T11:56:27.468Z,10.30
2018-12-04T11:58:55.992Z,10.30
2018-12-04T12:01:29.984Z,10.40
2018-12-04T12:03:58.433Z,10.30
2018-12-04T12:06:26.925Z,10.20
2018-12-04T12:08:55.327Z,10.40
2018-12-04T12:11:23.762Z,10.50
2018-12-04T12:13:52.577Z,10.60
2018-12-04T12:16:21.080Z,10.70
2018-12-04T12:18:49.654Z,10.60
2018-12-04T12:21:18.043Z,10.60
2018-12-04T12:23:46.811Z,10.60
2018-12-04T12:26:15.229Z,10.60
2018-12-04T12:28:43.631Z,10.70
2018-12-04T12:31:12.014Z,10.80
2018-12-04T12:33:40.425Z,10.70
2018-12-04T12:36:09.420Z,10.60
2018-12-04T12:38:37.820Z,10.50
2018-12-04T12:41:06.193Z,10.50
2018-12-04T12:43:34.582Z,10.60
2018-12-04T12:46:03.226Z,10.60
2018-12-04T12:48:31.603Z,10.60
2018-12-04T12:50:59.986Z,10.50
2018-12-04T12:53:28.357Z,10.60
2018-12-04T12:55:56.845Z,10.80
2018-12-04T12:58:25.238Z,10.90
2018-12-04T13:00:53.627Z,11.00
2018-12-04T13:03:22.014Z,11.00
2018-12-04T13:05:50.476Z,11.00
2018-12-04T13:08:18.860Z,10.90
2018-12-04T13:10:47.378Z,10.80
2018-12-04T13:13:15.944Z,10.80
2018-12-04T13:15:44.615Z,10.70
2018-12-04T13:18:13.711Z,10.70
2018-12-04T13:20:42.238Z,10.80
2018-12-04T13:23:10.738Z,10.80
2018-12-04T13:25:39.247Z,10.80
2018-12-04T13:28:07.723Z,10.70
2018-12-04T13:30:36.145Z,10.60
2018-12-04T13:33:04.638Z,10.30
2018-12-04T13:35:33.049Z,10.40
2018-12-04T13:38:01.747Z,10.40
2018-12-04T13:40:30.405Z,10.40
2018-12-04T13:42:58.798Z,10.50
2018-12-04T13:45:27.426Z,10.60
2018-12-04T13:47:55.857Z,10.40
2018-12-04T13:50:24.257Z,10.10
2018-12-04T13:52:52.835Z,10.10
2018-12-04T13:55:22.190Z,10.10
2018-12-04T13:57:50.882Z,10.10
2018-12-04T14:00:19.523Z,10.20
2018-12-04T14:02:48.039Z,10.10
2018-12-04T14:05:16.698Z,10.00
2018-12-04T14:07:45.622Z,10.10
2018-12-04T14:10:16.985Z,10.00
2018-12-04T14:12:45.398Z,10.10
2018-12-04T14:15:13.806Z,10.10
2018-12-04T14:17:42.449Z,10.00
2018-12-04T14:20:10.999Z,9.90
2018-12-04T14:22:39.485Z,9.90
2018-12-04T14:25:08.145Z,9.90
2018-12-04T14:27:36.760Z,9.90
2018-12-04T14:30:08.072Z,9.90
2018-12-04T14:32:36.557Z,9.90
2018-12-04T14:35:05.369Z,9.90
2018-12-04T14:37:33.750Z,9.90
2018-12-04T14:40:02.402Z,9.90
2018-12-04T14:42:30.852Z,9.90
2018-12-04T14:44:59.356Z,9.80
2018-12-04T14:47:27.796Z,9.90
2018-12-04T14:49:56.242Z,9.80
2018-12-04T14:52:24.780Z,9.90
2018-12-04T14:54:53.202Z,9.80
2018-12-04T14:57:21.695Z,9.80
2018-12-04T14:59:50.184Z,9.80
2018-12-04T15:02:18.823Z,9.70
2018-12-04T15:04:47.275Z,9.60
2018-12-04T15:07:15.949Z,9.60
2018-12-04T15:09:44.427Z,9.70
2018-12-04T15:12:13.054Z,9.70
2018-12-04T15:14:41.529Z,9.70
2018-12-04T15:17:09.993Z,9.70
2018-12-04T15:19:38.421Z,9.70
2018-12-04T15:22:06.880Z,9.70
2018-12-04T15:24:35.356Z,9.70
2018-12-04T15:27:04.222Z,9.70
2018-12-04T15:29:32.689Z,9.60
2018-12-04T15:32:01.152Z,9.60
2018-12-04T15:34:29.582Z,9.70
2018-12-04T15:36:58.045Z,9.70
2018-12-04T15:39:26.811Z,9.60
2018-12-04T15:41:55.374Z,9.60
2018-12-04T15:44:23.837Z,9.60
2018-12-04T15:46:52.319Z,9.50
2018-12-04T15:49:20.788Z,9.60
2018-12-04T15:51:49.193Z,9.60
2018-12-04T15:54:17.620Z,9.50
2018-12-04T15:56:46.188Z,9.40
2018-12-04T15:59:17.561Z,9.40
2018-12-04T16:01:46.258Z,9.40
2018-12-04T16:04:14.735Z,9.40
2018-12-04T16:06:43.210Z,9.50
2018-12-04T16:09:11.608Z,9.40
2018-12-04T16:11:40.174Z,9.30
2018-12-04T16:14:08.727Z,9.30
2018-12-04T16:16:37.190Z,9.40
2018-12-04T16:19:05.723Z,9.30
2018-12-04T16:21:34.320Z,9.10
2018-12-04T16:24:02.770Z,9.20
2018-12-04T16:26:31.174Z,9.20
2018-12-04T16:28:59.576Z,9.10
2018-12-04T16:31:27.979Z,9.10
2018-12-04T16:33:56.487Z,9.00
2018-12-04T16:36:24.950Z,9.20
2018-12-04T16:38:53.529Z,9.10
2018-12-04T16:41:22.177Z,9.00
2018-12-04T16:43:50.692Z,9.00
2018-12-04T16:46:19.061Z,8.90
2018-12-04T16:48:47.690Z,8.90
2018-12-04T16:51:16.209Z,8.90
2018-12-04T16:53:44.568Z,9.00
2018-12-04T16:56:12.963Z,9.00
2018-12-04T16:58:41.558Z,8.90
2018-12-04T17:01:10.065Z,8.90
2018-12-04T17:03:38.545Z,9.10
2018-12-04T17:06:07.252Z,9.00
2018-12-04T17:08:35.617Z,9.10
2018-12-04T17:11:04.001Z,8.90
2018-12-04T17:13:32.859Z,8.90
2018-12-04T17:16:01.361Z,8.90
2018-12-04T17:18:30.051Z,8.90
2018-12-04T17:21:00.745Z,8.80
2018-12-04T17:23:29.164Z,8.70
2018-12-04T17:25:57.896Z,8.80
2018-12-04T17:28:26.585Z,8.80
2018-12-04T17:30:54.990Z,8.80
2018-12-04T17:33:23.671Z,8.90
2018-12-04T17:35:52.183Z,8.90
2018-12-04T17:38:20.672Z,8.80
2018-12-04T17:40:49.086Z,8.80
2018-12-04T17:43:17.968Z,8.80
2018-12-04T17:45:46.397Z,8.80
2018-12-04T17:48:15.077Z,8.70
2018-12-04T17:50:43.459Z,8.70
2018-12-04T17:53:12.127Z,8.60
2018-12-04T17:55:40.559Z,8.70
2018-12-04T17:58:08.960Z,8.80
2018-12-04T18:00:37.482Z,8.70
2018-12-04T18:03:05.910Z,8.70
2018-12-04T18:05:34.440Z,8.70
2018-12-04T18:08:02.948Z,8.70
2018-12-04T18:10:31.395Z,8.70
2018-12-04T18:12:59.779Z,8.60
2018-12-04T18:15:28.406Z,8.70
2018-12-04T18:17:56.876Z,8.70
2018-12-04T18:20:25.351Z,8.60
2018-12-04T18:22:53.761Z,8.60
2018-12-04T18:25:22.349Z,8.60
2018-12-04T18:27:50.894Z,8.50
2018-12-04T18:30:19.326Z,8.50
2018-12-04T18:32:47.939Z,8.60
2018-12-04T18:35:16.525Z,8.50
2018-12-04T18:37:44.980Z,8.50
2018-12-04T18:40:13.657Z,8.70
2018-12-04T18:42:42.191Z,8.60
2018-12-04T18:45:10.633Z,8.50
2018-12-04T18:47:39.192Z,8.50
2018-12-04T18:50:10.162Z,8.50
2018-12-04T18:52:39.990Z,8.30
2018-12-04T18:55:10.901Z,8.30
2018-12-04T18:57:39.307Z,8.40
2018-12-04T19:00:08.777Z,8.30
2018-12-04T19:02:37.173Z,8.20
2018-12-04T19:05:06.654Z,8.20
2018-12-04T19:07:35.094Z,8.20
2018-12-04T19:10:03.523Z,8.10
2018-12-04T19:12:31.929Z,8.30
2018-12-04T19:15:00.473Z,8.30
2018-12-04T19:17:28.898Z,8.20
2018-12-04T19:19:57.498Z,8.20
2018-12-04T19:22:25.964Z,8.20
2018-12-04T19:24:54.489Z,8.20
2018-12-04T19:27:22.937Z,8.20
2018-12-04T19:29:51.331Z,8.30
2018-12-04T19:32:19.786Z,8.20
2018-12-04T19:34:48.408Z,8.20
2018-12-04T19:37:16.949Z,8.20
2018-12-04T19:39:45.670Z,8.20
2018-12-04T19:42:14.282Z,8.20
2018-12-04T19:44:42.719Z,8.00
2018-12-04T19:47:11.179Z,8.10
2018-12-04T19:49:39.844Z,8.10
2018-12-04T19:52:08.404Z,8.20
2018-12-04T19:54:36.784Z,8.10
2018-12-04T19:57:05.201Z,7.90
2018-12-04T19:59:33.604Z,7.90
2018-12-04T20:02:02.049Z,7.90
2018-12-04T20:04:30.618Z,7.80
2018-12-04T20:06:59.037Z,7.70
2018-12-04T20:09:27.473Z,7.60
2018-12-04T20:11:55.943Z,7.60
2018-12-04T20:14:24.587Z,7.50
2018-12-04T20:16:52.992Z,7.40
2018-12-04T20:19:21.637Z,7.40
2018-12-04T20:21:50.052Z,7.40
2018-12-04T20:24:18.663Z,7.30
2018-12-04T20:26:47.123Z,7.10
2018-12-04T20:29:15.823Z,7.10
2018-12-04T20:31:45.475Z,7.10
2018-12-04T20:34:14.337Z,7.20
2018-12-04T20:36:42.952Z,7.20
2018-12-04T20:39:11.605Z,7.10
2018-12-04T20:41:40.329Z,7.10
2018-12-04T20:44:09.087Z,6.90
2018-12-04T20:46:37.550Z,6.70
2018-12-04T20:49:06.190Z,6.60
2018-12-04T20:51:34.605Z,6.70
2018-12-04T20:54:03.016Z,6.50
2018-12-04T20:56:31.517Z,6.40
2018-12-04T20:59:00.193Z,6.20
2018-12-04T21:01:28.856Z,6.40
2018-12-04T21:03:57.261Z,6.30
2018-12-04T21:06:25.839Z,6.30
2018-12-04T21:08:54.268Z,6.40
2018-12-04T21:11:22.685Z,6.50
2018-12-04T21:13:51.081Z,6.40
2018-12-04T21:16:19.690Z,6.50
2018-12-04T21:18:48.097Z,6.50
2018-12-04T21:21:16.716Z,6.40
2018-12-04T21:23:45.284Z,6.40
2018-12-04T21:26:14.107Z,6.30
2018-12-04T21:28:48.931Z,6.30
2018-12-04T21:31:22.885Z,6.40
2018-12-04T21:35:01.076Z,6.50
2018-12-04T21:37:34.812Z,6.70
2018-12-04T21:40:08.656Z,6.60
2018-12-04T21:42:42.355Z,6.70
2018-12-04T21:45:16.224Z,6.60
2018-12-04T21:47:47.780Z,6.60
2018-12-04T21:50:19.409Z,6.70
2018-12-04T21:52:48.095Z,6.70
2018-12-04T21:55:16.468Z,6.70
2018-12-04T21:57:44.988Z,6.70
2018-12-04T22:00:13.532Z,6.70
2018-12-04T22:02:41.974Z,6.80
2018-12-04T22:05:10.358Z,7.00
2018-12-04T22:07:38.874Z,7.00
2018-12-04T22:10:08.020Z,7.00
2018-12-04T22:12:36.535Z,6.90
2018-12-04T22:15:05.313Z,6.90
2018-12-04T22:17:33.961Z,6.80
2018-12-04T22:20:02.611Z,6.80
2018-12-04T22:22:30.995Z,6.90
2018-12-04T22:24:59.413Z,6.90
2018-12-04T22:27:27.880Z,6.90
2018-12-04T22:29:56.382Z,7.00
2018-12-04T22:32:24.874Z,7.00
2018-12-04T22:34:53.445Z,6.90
2018-12-04T22:37:21.821Z,7.00
2018-12-04T22:39:50.211Z,6.90
2018-12-04T22:42:18.692Z,6.90
2018-12-04T22:44:47.224Z,6.90
2018-12-04T22:47:15.867Z,7.00
2018-12-04T22:49:44.485Z,7.00
2018-12-04T22:52:12.860Z,7.10
2018-12-04T22:54:41.329Z,7.10
2018-12-04T22:57:09.989Z,7.10
2018-12-04T22:59:38.392Z,7.10
2018-12-04T23:02:06.927Z,7.10
2018-12-04T23:04:35.296Z,7.20
2018-12-04T23:07:03.811Z,7.10
2018-12-04T23:09:32.172Z,7.10
2018-12-04T23:12:01.083Z,7.10
2018-12-04T23:14:29.578Z,7.00
2018-12-04T23:16:58.121Z,7.00
2018-12-04T23:19:26.503Z,7.00
2018-12-04T23:21:55.000Z,6.90
2018-12-04T23:24:23.517Z,6.90
2018-12-04T23:26:51.903Z,6.90
2018-12-04T23:29:20.276Z,7.00
2018-12-04T23:31:48.668Z,6.90
2018-12-04T23:34:17.025Z,6.80
2018-12-04T23:36:45.572Z,6.90
2018-12-04T23:39:13.956Z,7.00
2018-12-04T23:41:42.360Z,6.80
2018-12-04T23:44:10.731Z,6.80
2018-12-04T23:46:39.121Z,6.70
2018-12-04T23:49:07.525Z,6.70
2018-12-04T23:51:35.976Z,6.60
2018-12-04T23:54:04.491Z,6.60
2018-12-04T23:56:32.848Z,6.60
2018-12-04T23:59:01.213Z,6.60
